Time;durP1;ratioP1;P1;durP2;ratioP2;P2;SDS_P1;SDS_P2;PMS_P1;PMS_P2;Temp;Humidity;BMP_temperature;BMP_pressure;BME280_temperature;BME280_humidity;BME280_pressure;Samples;Min_cycle;Max_cycle;Signal;HPM_P1;HPM_P2
2021/04/14 00:01:48;;;;;;;6.15;1.35;;;;;;;;;;5054721;28;20032;-56
2021/04/14 00:04:14;;;;;;;4.15;1.60;;;;;;;;;;5055903;28;20052;-57
2021/04/14 00:06:40;;;;;;;7.18;1.52;;;;;;;;;;5045191;28;20037;-56
2021/04/14 00:09:06;;;;;;;5.22;1.42;;;;;;;;;;5052137;28;20059;-56
2021/04/14 00:11:32;;;;;;;5.68;1.95;;;;;;;;;;5047892;28;20484;-56
2021/04/14 00:13:58;;;;;;;7.97;1.60;;;;;;;;;;5048095;28;20033;-57
2021/04/14 00:16:25;;;;;;;9.18;2.30;;;;;;;;;;5056259;28;20108;-54
2021/04/14 00:18:51;;;;;;;7.85;1.38;;;;;;;;;;5047693;28;20025;-56
2021/04/14 00:21:18;;;;;;;8.93;1.60;;;;;;;;;;5054373;28;20029;-56
2021/04/14 00:23:44;;;;;;;7.97;1.80;;;;;;;;;;5038241;28;20587;-53
2021/04/14 00:26:11;;;;;;;6.32;1.60;;;;;;;;;;5054605;28;20029;-52
2021/04/14 00:28:37;;;;;;;5.88;1.20;;;;;;;;;;5034287;28;20044;-55
2021/04/14 00:31:04;;;;;;;9.32;1.60;;;;;;;;;;5054703;28;20519;-53
2021/04/14 00:33:30;;;;;;;6.00;1.70;;;;;;;;;;5053967;28;20045;-55
2021/04/14 00:35:57;;;;;;;7.28;1.92;;;;;;;;;;5057321;28;20021;-56
2021/04/14 00:38:23;;;;;;;3.72;1.27;;;;;;;;;;5054115;28;20457;-56
2021/04/14 00:40:54;;;;;;;4.97;1.50;;;;;;;;;;5054894;28;20024;-56
2021/04/14 00:43:23;;;;;;;4.15;1.90;;;;;;;;;;5054087;28;20032;-57
2021/04/14 00:45:49;;;;;;;5.72;1.58;;;;;;;;;;5055244;28;20033;-57
2021/04/14 00:48:15;;;;;;;9.68;1.90;;;;;;;;;;5054020;28;20032;-56
2021/04/14 00:50:41;;;;;;;4.60;1.73;;;;;;;;;;5057183;28;20175;-57
2021/04/14 00:53:08;;;;;;;5.90;1.67;;;;;;;;;;5054504;28;20059;-55
2021/04/14 00:55:36;;;;;;;5.85;1.45;;;;;;;;;;5064406;28;20165;-54
2021/04/14 00:58:02;;;;;;;3.60;1.30;;;;;;;;;;5044216;28;20471;-58
2021/04/14 01:00:35;;;;;;;5.70;1.80;;;;;;;;;;5054051;28;20045;-55
2021/04/14 01:03:01;;;;;;;;;;;;;;;;;;5053662;28;20056;-53
2021/04/14 01:05:29;;;;;;;6.22;1.27;;;;;;;;;;5063107;28;20001;-54
2021/04/14 01:07:55;;;;;;;4.53;1.38;;;;;;;;;;5050582;28;20047;-52
2021/04/14 01:10:23;;;;;;;5.00;1.73;;;;;;;;;;5049436;28;20037;-54
2021/04/14 01:12:49;;;;;;;2.42;1.42;;;;;;;;;;5051266;28;20057;-58
2021/04/14 01:15:18;;;;;;;7.32;1.55;;;;;;;;;;5047600;28;20119;-58
2021/04/14 01:17:44;;;;;;;9.75;2.20;;;;;;;;;;5048556;28;20021;-57
2021/04/14 01:20:10;;;;;;;7.68;1.65;;;;;;;;;;5035843;28;20026;-57
2021/04/14 01:22:36;;;;;;;5.72;1.73;;;;;;;;;;5053669;28;20103;-56
2021/04/14 01:25:05;;;;;;;10.60;1.75;;;;;;;;;;5054257;28;20021;-55
2021/04/14 01:27:31;;;;;;;5.18;1.67;;;;;;;;;;5042161;28;20108;-53
2021/04/14 01:29:57;;;;;;;9.98;2.08;;;;;;;;;;5050251;28;20029;-52
2021/04/14 01:32:29;;;;;;;12.80;1.70;;;;;;;;;;5053748;28;20184;-53
2021/04/14 01:34:55;;;;;;;5.40;1.70;;;;;;;;;;5053488;28;20046;-56
2021/04/14 01:37:21;;;;;;;11.55;2.30;;;;;;;;;;5053031;28;20029;-52
2021/04/14 01:39:47;;;;;;;8.35;1.80;;;;;;;;;;5053255;28;20384;-53
2021/04/14 01:42:13;;;;;;;7.03;1.90;;;;;;;;;;5054251;28;20025;-54
2021/04/14 01:44:39;;;;;;;9.73;1.73;;;;;;;;;;5059332;28;20099;-56
2021/04/14 01:47:05;;;;;;;9.82;1.80;;;;;;;;;;5051883;28;20154;-54
2021/04/14 01:49:31;;;;;;;7.43;1.58;;;;;;;;;;5052618;28;20040;-57
2021/04/14 01:51:57;;;;;;;9.48;1.77;;;;;;;;;;5049969;28;20060;-58
2021/04/14 01:54:23;;;;;;;5.00;1.77;;;;;;;;;;5052544;28;20120;-57
2021/04/14 01:56:49;;;;;;;8.75;1.90;;;;;;;;;;5040690;28;20473;-53
2021/04/14 01:59:15;;;;;;;7.55;1.63;;;;;;;;;;5034532;28;20025;-56
2021/04/14 02:01:41;;;;;;;4.97;2.42;;;;;;;;;;5045577;28;20037;-52
2021/04/14 02:04:07;;;;;;;15.90;2.10;;;;;;;;;;5033318;28;20148;-57
2021/04/14 02:06:33;;;;;;;4.47;1.60;;;;;;;;;;5036141;28;20020;-53
2021/04/14 02:08:59;;;;;;;11.23;2.05;;;;;;;;;;5043113;28;20025;-56
2021/04/14 02:11:25;;;;;;;10.98;2.05;;;;;;;;;;5043387;28;20086;-56
2021/04/14 02:13:51;;;;;;;10.80;2.05;;;;;;;;;;5051354;28;20037;-53
2021/04/14 02:16:20;;;;;;;8.73;1.98;;;;;;;;;;5052340;28;20096;-56
2021/04/14 02:18:46;;;;;;;9.25;1.85;;;;;;;;;;5061490;28;20388;-56
2021/04/14 02:21:12;;;;;;;11.20;2.45;;;;;;;;;;5032426;28;20028;-53
2021/04/14 02:23:41;;;;;;;12.90;2.00;;;;;;;;;;5049309;28;20104;-58
2021/04/14 02:26:08;;;;;;;9.18;2.42;;;;;;;;;;5047729;28;20538;-53
2021/04/14 02:28:34;;;;;;;11.52;2.22;;;;;;;;;;5039742;28;20120;-57
2021/04/14 02:31:00;;;;;;;13.50;2.42;;;;;;;;;;5048665;28;20032;-57
2021/04/14 02:33:27;;;;;;;5.10;2.28;;;;;;;;;;5046510;28;20464;-56
2021/04/14 02:35:54;;;;;;;13.98;2.30;;;;;;;;;;5041466;28;20454;-57
2021/04/14 02:38:21;;;;;;;11.45;1.92;;;;;;;;;;5044071;28;20167;-56
2021/04/14 02:40:47;;;;;;;12.32;2.35;;;;;;;;;;5043862;28;20052;-52
2021/04/14 02:43:13;;;;;;;5.10;1.85;;;;;;;;;;5053039;28;20028;-57
2021/04/14 02:45:40;;;;;;;12.90;1.95;;;;;;;;;;5051372;28;20032;-52
2021/04/14 02:48:07;;;;;;;7.03;2.22;;;;;;;;;;5052323;28;20036;-55
2021/04/14 02:50:33;;;;;;;13.88;2.30;;;;;;;;;;5051209;28;20116;-57
2021/04/14 02:52:59;;;;;;;12.68;1.98;;;;;;;;;;5052699;28;20130;-54
2021/04/14 02:55:26;;;;;;;10.32;2.78;;;;;;;;;;5048421;28;20037;-52
2021/04/14 02:57:52;;;;;;;6.97;1.95;;;;;;;;;;5054688;28;20377;-55
2021/04/14 03:00:19;;;;;;;5.85;1.98;;;;;;;;;;5057906;28;20036;-57
2021/04/14 03:02:45;;;;;;;7.70;1.98;;;;;;;;;;5051786;28;20032;-56
2021/04/14 03:05:12;;;;;;;14.40;1.92;;;;;;;;;;5053430;28;20533;-56
2021/04/14 03:07:40;;;;;;;8.20;2.00;;;;;;;;;;5052803;28;20022;-54
2021/04/14 03:10:07;;;;;;;5.28;2.13;;;;;;;;;;5059100;28;20017;-52
2021/04/14 03:12:33;;;;;;;9.40;1.95;;;;;;;;;;5045477;28;20109;-55
2021/04/14 03:14:59;;;;;;;13.63;2.20;;;;;;;;;;5051389;28;20104;-55
2021/04/14 03:17:25;;;;;;;10.05;2.63;;;;;;;;;;5050803;28;20444;-55
2021/04/14 03:19:51;;;;;;;4.78;1.60;;;;;;;;;;5052132;28;20033;-53
2021/04/14 03:22:17;;;;;;;15.43;2.53;;;;;;;;;;5053134;28;20033;-55
2021/04/14 03:24:43;;;;;;;5.50;1.60;;;;;;;;;;5052013;28;20025;-57
2021/04/14 03:27:09;;;;;;;13.13;1.83;;;;;;;;;;5055277;28;20017;-53
2021/04/14 03:29:38;;;;;;;6.38;1.90;;;;;;;;;;5058432;28;20120;-56
2021/04/14 03:32:04;;;;;;;8.52;1.88;;;;;;;;;;5062233;28;20037;-56
2021/04/14 03:34:30;;;;;;;7.97;2.08;;;;;;;;;;5053834;28;20493;-57
2021/04/14 03:36:56;;;;;;;13.63;2.30;;;;;;;;;;5055305;28;20029;-57
2021/04/14 03:39:22;;;;;;;7.32;1.95;;;;;;;;;;5055588;28;20350;-57
2021/04/14 03:41:48;;;;;;;10.10;2.53;;;;;;;;;;5056737;28;20056;-57
2021/04/14 03:44:14;;;;;;;8.27;1.98;;;;;;;;;;5061868;28;20033;-55
2021/04/14 03:46:40;;;;;;;6.30;2.45;;;;;;;;;;5054441;28;20036;-55
2021/04/14 03:49:06;;;;;;;8.00;2.00;;;;;;;;;;5059231;28;20028;-53
2021/04/14 03:51:33;;;;;;;13.23;2.22;;;;;;;;;;5054934;28;20048;-54
2021/04/14 03:53:59;;;;;;;9.23;2.15;;;;;;;;;;5055341;28;20057;-57
2021/04/14 03:56:25;;;;;;;8.48;2.00;;;;;;;;;;5047351;28;20436;-55
2021/04/14 03:58:52;;;;;;;7.55;2.35;;;;;;;;;;5038061;28;20377;-56
2021/04/14 04:01:20;;;;;;;9.15;1.85;;;;;;;;;;5054988;28;20457;-57
2021/04/14 04:03:47;;;;;;;9.40;2.70;;;;;;;;;;5056608;28;20346;-53
2021/04/14 04:06:13;;;;;;;10.77;2.42;;;;;;;;;;5055604;28;20123;-57
2021/04/14 04:08:39;;;;;;;9.48;2.15;;;;;;;;;;5040368;28;20069;-56
2021/04/14 04:11:05;;;;;;;13.52;2.20;;;;;;;;;;5047019;28;20087;-54
2021/04/14 04:13:32;;;;;;;8.88;2.28;;;;;;;;;;5052418;28;20035;-58
2021/04/14 04:15:58;;;;;;;10.63;2.28;;;;;;;;;;5039191;28;20041;-53
2021/04/14 04:18:24;;;;;;;8.05;2.58;;;;;;;;;;5054723;28;20039;-56
2021/04/14 04:20:50;;;;;;;13.40;2.67;;;;;;;;;;5054802;28;20029;-58
2021/04/14 04:23:16;;;;;;;5.18;2.03;;;;;;;;;;5054561;28;20032;-55
2021/04/14 04:25:42;;;;;;;14.45;2.60;;;;;;;;;;5056235;28;20108;-53
2021/04/14 04:28:09;;;;;;;7.78;2.28;;;;;;;;;;5053874;28;20086;-58
2021/04/14 04:30:36;;;;;;;13.77;2.20;;;;;;;;;;5052253;28;20150;-58
2021/04/14 04:33:02;;;;;;;8.77;2.15;;;;;;;;;;5050947;28;20033;-57
2021/04/14 04:35:29;;;;;;;8.20;2.08;;;;;;;;;;5051112;28;20104;-56
2021/04/14 04:37:55;;;;;;;6.55;1.77;;;;;;;;;;5055997;28;20033;-55
2021/04/14 04:40:21;;;;;;;8.27;2.20;;;;;;;;;;5063760;28;20051;-58
2021/04/14 04:42:48;;;;;;;9.70;2.17;;;;;;;;;;5063619;28;20487;-58
2021/04/14 04:45:16;;;;;;;10.93;2.45;;;;;;;;;;5041446;28;20124;-57
2021/04/14 04:47:42;;;;;;;8.60;2.28;;;;;;;;;;5057541;28;20013;-57
2021/04/14 04:50:08;;;;;;;7.18;2.22;;;;;;;;;;5054761;28;20039;-55
2021/04/14 04:52:34;;;;;;;7.63;2.05;;;;;;;;;;5053776;28;20404;-54
2021/04/14 04:55:00;;;;;;;8.43;2.38;;;;;;;;;;5049876;28;20106;-58
2021/04/14 04:57:26;;;;;;;6.82;2.00;;;;;;;;;;5047268;28;20040;-56
2021/04/14 04:59:53;;;;;;;11.05;2.67;;;;;;;;;;5049447;28;20021;-56
2021/04/14 05:02:19;;;;;;;13.20;2.83;;;;;;;;;;5057655;28;20020;-55
2021/04/14 05:04:45;;;;;;;20.92;3.33;;;;;;;;;;5054254;28;20128;-58
2021/04/14 05:07:11;;;;;;;6.82;3.30;;;;;;;;;;5056458;28;20031;-58
2021/04/14 05:09:37;;;;;;;17.45;4.80;;;;;;;;;;5051109;28;20116;-55
2021/04/14 05:12:03;;;;;;;8.55;3.50;;;;;;;;;;5066900;28;20031;-56
2021/04/14 05:14:29;;;;;;;11.20;3.10;;;;;;;;;;5038641;28;20440;-55
2021/04/14 05:16:55;;;;;;;13.07;2.75;;;;;;;;;;5049995;28;20036;-57
2021/04/14 05:19:21;;;;;;;7.65;2.95;;;;;;;;;;5057978;28;20029;-58
2021/04/14 05:21:47;;;;;;;12.23;3.63;;;;;;;;;;5058754;28;20096;-58
2021/04/14 05:24:13;;;;;;;19.08;4.70;;;;;;;;;;5052447;28;20033;-57
2021/04/14 05:26:39;;;;;;;10.57;3.22;;;;;;;;;;5053334;28;20032;-57
2021/04/14 05:29:06;;;;;;;17.73;3.33;;;;;;;;;;5042439;28;20032;-57
2021/04/14 05:31:32;;;;;;;9.63;2.83;;;;;;;;;;5057024;28;20104;-58
2021/04/14 05:34:01;;;;;;;14.48;3.40;;;;;;;;;;5051609;28;20048;-57
2021/04/14 05:36:28;;;;;;;13.65;3.13;;;;;;;;;;5044981;28;20110;-57
2021/04/14 05:38:54;;;;;;;10.52;3.55;;;;;;;;;;5061529;28;20487;-54
2021/04/14 05:41:21;;;;;;;18.17;3.17;;;;;;;;;;5049558;28;20045;-57
2021/04/14 05:43:47;;;;;;;14.38;3.63;;;;;;;;;;5053640;28;20388;-57
2021/04/14 05:46:15;;;;;;;12.10;3.45;;;;;;;;;;5044421;28;20126;-57
2021/04/14 05:48:42;;;;;;;11.93;3.08;;;;;;;;;;5061835;28;20033;-55
2021/04/14 05:51:09;;;;;;;13.40;3.20;;;;;;;;;;5051236;28;20464;-58
2021/04/14 05:53:36;;;;;;;18.02;5.35;;;;;;;;;;5059108;28;20044;-57
2021/04/14 05:56:02;;;;;;;13.55;3.92;;;;;;;;;;5049961;28;20028;-58
2021/04/14 05:58:28;;;;;;;11.88;3.30;;;;;;;;;;5046507;28;20116;-56
2021/04/14 06:00:55;;;;;;;17.08;3.58;;;;;;;;;;5047728;28;20031;-58
2021/04/14 06:03:24;;;;;;;17.52;3.97;;;;;;;;;;5047142;28;20112;-57
2021/04/14 06:05:53;;;;;;;16.90;4.30;;;;;;;;;;5057382;28;20064;-56
2021/04/14 06:08:19;;;;;;;24.17;4.15;;;;;;;;;;5053835;28;20170;-58
2021/04/14 06:10:45;;;;;;;13.43;3.72;;;;;;;;;;5043745;28;20025;-55
2021/04/14 06:13:11;;;;;;;20.80;5.75;;;;;;;;;;5046643;28;20029;-57
2021/04/14 06:15:38;;;;;;;21.42;3.90;;;;;;;;;;5055379;28;20123;-55
2021/04/14 06:18:04;;;;;;;11.88;4.88;;;;;;;;;;5056560;28;20030;-58
2021/04/14 06:20:31;;;;;;;14.82;4.53;;;;;;;;;;5048193;28;20028;-58
2021/04/14 06:22:59;;;;;;;20.08;4.80;;;;;;;;;;5049425;28;20032;-55
2021/04/14 06:25:26;;;;;;;18.70;3.95;;;;;;;;;;5051614;28;20043;-57
2021/04/14 06:28:00;;;;;;;15.25;3.83;;;;;;;;;;5054617;28;20017;-57
2021/04/14 06:30:26;;;;;;;14.50;3.63;;;;;;;;;;5051985;28;20029;-57
2021/04/14 06:32:52;;;;;;;12.35;3.83;;;;;;;;;;5052750;28;20366;-57
2021/04/14 06:35:20;;;;;;;22.20;4.22;;;;;;;;;;5050716;28;20032;-58
2021/04/14 06:37:46;;;;;;;16.50;4.00;;;;;;;;;;5055147;28;20104;-55
2021/04/14 06:43:12;;;;;;;24.08;4.85;;;;;;;;;;5044244;28;20044;-55
2021/04/14 06:45:41;;;;;;;19.73;5.35;;;;;;;;;;5056248;28;20507;-58
2021/04/14 06:48:10;;;;;;;17.65;3.92;;;;;;;;;;5057492;28;20044;-54
2021/04/14 06:50:48;;;;;;;15.00;3.42;;;;;;;;;;5054957;28;20071;-54
2021/04/14 06:53:33;;;;;;;13.07;3.80;;;;;;;;;;5052000;28;20072;-52
2021/04/14 06:56:05;;;;;;;11.90;4.00;;;;;;;;;;5053475;28;20021;-54
2021/04/14 06:58:40;;;;;;;22.00;4.25;;;;;;;;;;5043471;28;20056;-56
2021/04/14 07:01:09;;;;;;;21.48;4.65;;;;;;;;;;5044285;28;20039;-54
2021/04/14 07:03:41;;;;;;;20.50;4.85;;;;;;;;;;5047160;28;20032;-53
2021/04/14 07:06:09;;;;;;;17.30;4.20;;;;;;;;;;5049525;28;20117;-55
2021/04/14 07:08:38;;;;;;;13.52;3.47;;;;;;;;;;5054517;28;20028;-54
2021/04/14 07:11:05;;;;;;;11.60;3.97;;;;;;;;;;5049989;28;20516;-53
2021/04/14 07:13:32;;;;;;;15.88;3.75;;;;;;;;;;5051284;28;20119;-55
2021/04/14 07:16:10;;;;;;;16.77;4.03;;;;;;;;;;5040785;28;20451;-56
2021/04/14 07:18:44;;;;;;;11.43;3.55;;;;;;;;;;5050990;28;20021;-54
2021/04/14 07:21:10;;;;;;;;;;;;;;;;;;5050168;28;20033;-54
2021/04/14 07:23:49;;;;;;;14.45;3.28;;;;;;;;;;5048366;28;19959;-55
2021/04/14 07:26:24;;;;;;;14.48;3.25;;;;;;;;;;5050470;28;20037;-55
2021/04/14 07:29:09;;;;;;;13.23;4.03;;;;;;;;;;5049957;28;20029;-55
2021/04/14 07:31:35;;;;;;;12.82;3.28;;;;;;;;;;5045071;28;20108;-54
2021/04/14 07:34:01;;;;;;;19.27;4.15;;;;;;;;;;5047810;28;20047;-53
2021/04/14 07:36:45;;;;;;;17.52;4.30;;;;;;;;;;5048702;28;20029;-54
2021/04/14 07:39:30;;;;;;;12.48;3.10;;;;;;;;;;5056915;28;20034;-54
2021/04/14 07:42:22;;;;;;;23.65;3.60;;;;;;;;;;5043037;28;20043;-55
2021/04/14 07:45:07;;;;;;;11.23;3.15;;;;;;;;;;5051309;28;20040;-52
2021/04/14 07:47:34;;;;;;;12.15;3.00;;;;;;;;;;5042497;28;20067;-56
2021/04/14 07:50:00;;;;;;;16.33;4.47;;;;;;;;;;5055897;28;20033;-52
2021/04/14 07:52:27;;;;;;;19.98;3.63;;;;;;;;;;5051152;28;20068;-54
2021/04/14 07:54:53;;;;;;;10.13;2.72;;;;;;;;;;5051460;28;20017;-51
2021/04/14 07:57:33;;;;;;;18.15;3.55;;;;;;;;;;5045531;28;20420;-57
2021/04/14 08:00:14;;;;;;;11.98;3.30;;;;;;;;;;5041653;28;20037;-56
2021/04/14 08:02:40;;;;;;;40.75;4.50;;;;;;;;;;5046081;28;20147;-53
2021/04/14 08:05:27;;;;;;;10.07;2.72;;;;;;;;;;5047006;28;20104;-55
2021/04/14 08:07:53;;;;;;;16.92;2.80;;;;;;;;;;5047457;28;20036;-56
2021/04/14 08:10:24;;;;;;;23.65;2.70;;;;;;;;;;5052775;28;20083;-56
2021/04/14 08:13:03;;;;;;;11.93;3.28;;;;;;;;;;5044328;28;20028;-56
2021/04/14 08:15:41;;;;;;;12.23;2.63;;;;;;;;;;5049870;28;20025;-57
2021/04/14 08:18:27;;;;;;;14.05;2.60;;;;;;;;;;5044557;28;20400;-55
2021/04/14 08:21:05;;;;;;;12.18;2.97;;;;;;;;;;5053914;28;20036;-56
2021/04/14 08:23:31;;;;;;;7.07;2.30;;;;;;;;;;5048787;28;20037;-54
2021/04/14 08:25:59;;;;;;;11.30;2.33;;;;;;;;;;5052321;28;20459;-53
2021/04/14 08:28:43;;;;;;;11.77;2.53;;;;;;;;;;5053533;28;20145;-52
2021/04/14 08:31:47;;;;;;;8.82;2.28;;;;;;;;;;5049328;28;20037;-55
2021/04/14 08:34:22;;;;;;;6.25;2.40;;;;;;;;;;5044483;28;20786;-53
2021/04/14 08:36:55;;;;;;;11.55;2.58;;;;;;;;;;5049264;28;20021;-53
2021/04/14 08:39:21;;;;;;;;;;;;;;;;;;5049157;28;20049;-55
2021/04/14 08:41:48;;;;;;;12.10;2.72;;;;;;;;;;5046549;28;20006;-52
2021/04/14 08:44:16;;;;;;;14.48;2.22;;;;;;;;;;5037936;28;20040;-51
2021/04/14 08:46:43;;;;;;;9.73;2.00;;;;;;;;;;5044047;28;20373;-50
2021/04/14 08:49:23;;;;;;;15.85;2.00;;;;;;;;;;5047323;28;20413;-54
2021/04/14 08:51:51;;;;;;;8.23;1.77;;;;;;;;;;5050050;28;20130;-50
2021/04/14 08:54:19;;;;;;;11.48;2.15;;;;;;;;;;5051501;28;20057;-52
2021/04/14 08:56:45;;;;;;;10.13;2.08;;;;;;;;;;5049112;28;20057;-50
2021/04/14 08:59:12;;;;;;;8.82;2.30;;;;;;;;;;5049076;28;20056;-53
2021/04/14 09:01:38;;;;;;;8.00;1.58;;;;;;;;;;5049597;28;20025;-56
2021/04/14 09:04:06;;;;;;;11.32;1.80;;;;;;;;;;5050791;28;20039;-54
2021/04/14 09:06:32;;;;;;;9.05;1.77;;;;;;;;;;5053218;28;20036;-50
2021/04/14 09:09:01;;;;;;;8.23;1.63;;;;;;;;;;5047888;28;20059;-51
2021/04/14 09:11:29;;;;;;;12.90;2.10;;;;;;;;;;5047901;28;20736;-53
2021/04/14 09:14:05;;;;;;;13.63;2.20;;;;;;;;;;5046361;28;20033;-49
2021/04/14 09:16:33;;;;;;;8.07;1.65;;;;;;;;;;5038101;28;20052;-50
2021/04/14 09:19:17;;;;;;;10.43;1.80;;;;;;;;;;5045277;28;20071;-50
2021/04/14 09:21:45;;;;;;;16.70;1.90;;;;;;;;;;5052801;28;20029;-54
2021/04/14 09:24:21;;;;;;;13.23;1.55;;;;;;;;;;5047403;28;20054;-53
2021/04/14 09:26:53;;;;;;;14.18;1.88;;;;;;;;;;5044226;28;20163;-54
2021/04/14 09:29:22;;;;;;;13.63;1.83;;;;;;;;;;5050579;28;20037;-53
2021/04/14 09:31:49;;;;;;;8.02;1.40;;;;;;;;;;5051695;28;20113;-55
2021/04/14 09:34:15;;;;;;;9.52;1.40;;;;;;;;;;5047509;28;20036;-55
2021/04/14 09:36:50;;;;;;;8.73;1.60;;;;;;;;;;5054179;28;20774;-54
2021/04/14 09:39:28;;;;;;;8.82;1.55;;;;;;;;;;5047393;28;21680;-54
2021/04/14 09:41:54;;;;;;;8.45;1.52;;;;;;;;;;5051780;28;20047;-53
2021/04/14 09:44:35;;;;;;;7.85;1.50;;;;;;;;;;5050915;28;20094;-50
2021/04/14 09:47:10;;;;;;;8.20;1.65;;;;;;;;;;5048273;28;20040;-55
2021/04/14 09:49:41;;;;;;;5.53;1.98;;;;;;;;;;5050749;28;20037;-55
2021/04/14 09:52:21;;;;;;;8.43;1.33;;;;;;;;;;5046407;28;20037;-54
2021/04/14 09:54:49;;;;;;;6.65;1.33;;;;;;;;;;5051802;28;20057;-51
2021/04/14 09:57:20;;;;;;;8.23;1.88;;;;;;;;;;5042604;28;20112;-54
2021/04/14 09:59:46;;;;;;;9.75;1.58;;;;;;;;;;5048298;28;20013;-55
2021/04/14 10:02:13;;;;;;;5.50;1.52;;;;;;;;;;5047253;28;20032;-53
2021/04/14 10:04:40;;;;;;;6.50;1.48;;;;;;;;;;5043390;28;20107;-53
2021/04/14 10:07:28;;;;;;;9.35;1.48;;;;;;;;;;5038224;28;20029;-53
2021/04/14 10:10:04;;;;;;;6.18;1.50;;;;;;;;;;5042255;28;20056;-54
2021/04/14 10:12:30;;;;;;;7.03;1.33;;;;;;;;;;5042649;28;20048;-50
2021/04/14 10:14:57;;;;;;;6.35;1.50;;;;;;;;;;5042178;28;20033;-54
2021/04/14 10:17:25;;;;;;;6.32;1.48;;;;;;;;;;5040809;28;20027;-53
2021/04/14 10:20:02;;;;;;;4.55;1.70;;;;;;;;;;5042277;28;20040;-52
2021/04/14 10:22:34;;;;;;;8.48;1.40;;;;;;;;;;5039131;28;20029;-55
2021/04/14 10:25:29;;;;;;;6.43;1.50;;;;;;;;;;5042398;28;20036;-52
2021/04/14 10:28:20;;;;;;;5.70;0.95;;;;;;;;;;5043836;28;20045;-52
2021/04/14 10:30:48;;;;;;;5.50;1.45;;;;;;;;;;5045236;28;20044;-55
2021/04/14 10:33:20;;;;;;;4.43;0.88;;;;;;;;;;5038316;28;20483;-54
2021/04/14 10:35:47;;;;;;;5.55;1.25;;;;;;;;;;5036314;28;20112;-53
2021/04/14 10:38:13;;;;;;;3.60;1.08;;;;;;;;;;5051048;28;20039;-54
2021/04/14 10:40:41;;;;;;;3.38;1.00;;;;;;;;;;5052543;28;20025;-53
2021/04/14 10:43:12;;;;;;;3.90;1.35;;;;;;;;;;5060185;28;20025;-51
2021/04/14 10:45:50;;;;;;;5.13;1.25;;;;;;;;;;5058448;28;20020;-54
2021/04/14 10:48:16;;;;;;;4.55;1.00;;;;;;;;;;5051415;28;20713;-51
2021/04/14 10:50:42;;;;;;;4.10;1.20;;;;;;;;;;5051981;28;20101;-55
2021/04/14 10:53:09;;;;;;;5.82;1.25;;;;;;;;;;5055205;28;20106;-52
2021/04/14 10:55:37;;;;;;;4.68;1.10;;;;;;;;;;5053248;28;20053;-50
2021/04/14 10:58:05;;;;;;;4.28;1.10;;;;;;;;;;5045352;28;20535;-55
2021/04/14 11:00:33;;;;;;;5.28;1.25;;;;;;;;;;5052138;28;20044;-49
2021/04/14 11:03:06;;;;;;;6.63;1.13;;;;;;;;;;5058107;28;20465;-53
2021/04/14 11:05:32;;;;;;;7.90;1.10;;;;;;;;;;5056459;28;20425;-52
2021/04/14 11:07:58;;;;;;;5.57;0.70;;;;;;;;;;5053543;28;20048;-54
2021/04/14 11:10:27;;;;;;;5.35;0.80;;;;;;;;;;5053251;28;20429;-49
2021/04/14 11:12:54;;;;;;;6.55;1.10;;;;;;;;;;5050054;28;20017;-52
2021/04/14 11:15:26;;;;;;;6.50;1.00;;;;;;;;;;5061108;28;20021;-52
2021/04/14 11:17:59;;;;;;;5.28;1.02;;;;;;;;;;5051561;28;20025;-48
2021/04/14 11:20:26;;;;;;;4.60;1.23;;;;;;;;;;5055005;28;20017;-51
2021/04/14 11:22:54;;;;;;;6.18;1.17;;;;;;;;;;5050832;28;20167;-53
2021/04/14 11:25:31;;;;;;;5.15;1.20;;;;;;;;;;5055629;28;20488;-53
2021/04/14 11:28:01;;;;;;;3.92;1.10;;;;;;;;;;5039583;28;20107;-49
2021/04/14 11:30:27;;;;;;;9.25;1.30;;;;;;;;;;5050250;28;20024;-53
2021/04/14 11:32:54;;;;;;;5.25;1.15;;;;;;;;;;5038673;28;20086;-53
2021/04/14 11:35:30;;;;;;;3.40;1.15;;;;;;;;;;5050745;28;20030;-52
2021/04/14 11:37:56;;;;;;;3.28;1.15;;;;;;;;;;5041725;28;20072;-53
2021/04/14 11:40:22;;;;;;;8.23;1.75;;;;;;;;;;5051550;28;20021;-53
2021/04/14 11:42:52;;;;;;;2.92;0.90;;;;;;;;;;5051384;28;20036;-55
2021/04/14 11:45:30;;;;;;;7.85;1.33;;;;;;;;;;5052101;28;20107;-54
2021/04/14 11:48:06;;;;;;;7.07;1.25;;;;;;;;;;5055334;28;20488;-54
2021/04/14 11:50:33;;;;;;;9.25;1.85;;;;;;;;;;5044790;28;20385;-54
2021/04/14 11:53:00;;;;;;;3.95;1.00;;;;;;;;;;5057982;28;20080;-51
2021/04/14 11:55:26;;;;;;;4.78;1.30;;;;;;;;;;5058283;28;20575;-54
2021/04/14 11:57:54;;;;;;;6.68;1.48;;;;;;;;;;5059137;28;20025;-53
2021/04/14 12:00:26;;;;;;;5.85;1.25;;;;;;;;;;5059818;28;20552;-53
2021/04/14 12:02:53;;;;;;;4.93;1.10;;;;;;;;;;5058897;28;20037;-55
2021/04/14 12:05:19;;;;;;;5.20;1.40;;;;;;;;;;5062661;28;20033;-50
2021/04/14 12:07:45;;;;;;;5.57;1.02;;;;;;;;;;5055690;28;20040;-51
2021/04/14 12:10:12;;;;;;;7.85;1.42;;;;;;;;;;5055062;28;20108;-55
2021/04/14 12:12:37;;;;;;;3.08;0.90;;;;;;;;;;5054527;28;20094;-50
2021/04/14 12:15:04;;;;;;;4.22;0.77;;;;;;;;;;5070692;28;20036;-49
2021/04/14 12:17:30;;;;;;;8.07;1.00;;;;;;;;;;5062341;28;20082;-50
2021/04/14 12:19:57;;;;;;;3.58;0.90;;;;;;;;;;5053398;28;20025;-54
2021/04/14 12:22:23;;;;;;;5.40;1.10;;;;;;;;;;5053968;28;20520;-54
2021/04/14 12:24:49;;;;;;;4.85;1.20;;;;;;;;;;5053256;28;20032;-53
2021/04/14 12:27:15;;;;;;;4.30;0.65;;;;;;;;;;5056192;28;20025;-53
2021/04/14 12:29:42;;;;;;;5.03;1.08;;;;;;;;;;5061170;28;20040;-54
2021/04/14 12:32:08;;;;;;;8.15;1.10;;;;;;;;;;5064989;28;20060;-49
2021/04/14 12:34:34;;;;;;;4.43;1.10;;;;;;;;;;5054405;28;20071;-54
2021/04/14 12:37:00;;;;;;;4.10;0.80;;;;;;;;;;5056323;28;20033;-53
2021/04/14 12:39:26;;;;;;;3.65;0.88;;;;;;;;;;5060162;28;20040;-52
2021/04/14 12:41:53;;;;;;;7.97;1.42;;;;;;;;;;5054120;28;20037;-54
2021/04/14 12:44:21;;;;;;;6.60;1.40;;;;;;;;;;5055310;28;20029;-55
2021/04/14 12:46:47;;;;;;;2.95;0.88;;;;;;;;;;5056694;28;20518;-53
2021/04/14 12:49:15;;;;;;;4.15;1.10;;;;;;;;;;5067720;28;20372;-53
2021/04/14 12:51:45;;;;;;;7.15;1.35;;;;;;;;;;5054113;28;20068;-54
2021/04/14 12:54:11;;;;;;;4.35;0.82;;;;;;;;;;5053472;28;20048;-53
2021/04/14 12:56:39;;;;;;;7.70;1.55;;;;;;;;;;5057158;28;20474;-55
2021/04/14 12:59:28;;;;;;;6.97;1.40;;;;;;;;;;5041733;28;20036;-54
2021/04/14 13:01:56;;;;;;;4.07;1.00;;;;;;;;;;5055434;28;20167;-53
2021/04/14 13:04:29;;;;;;;3.15;1.30;;;;;;;;;;5055452;28;20028;-54
2021/04/14 13:07:00;;;;;;;4.57;1.20;;;;;;;;;;5055097;28;20036;-52
2021/04/14 13:09:27;;;;;;;3.88;0.90;;;;;;;;;;5059154;28;20040;-54
2021/04/14 13:11:56;;;;;;;8.95;1.15;;;;;;;;;;5055033;28;20029;-53
2021/04/14 13:14:22;;;;;;;5.47;0.75;;;;;;;;;;5054708;28;20511;-55
2021/04/14 13:16:50;;;;;;;3.95;1.02;;;;;;;;;;5061783;28;20016;-54
2021/04/14 13:19:16;;;;;;;5.15;1.00;;;;;;;;;;5061699;28;20089;-55
2021/04/14 13:21:53;;;;;;;4.05;1.20;;;;;;;;;;5057332;28;20364;-53
2021/04/14 13:24:22;;;;;;;5.63;0.95;;;;;;;;;;5057176;28;20109;-54
2021/04/14 13:26:58;;;;;;;2.95;1.10;;;;;;;;;;5052974;28;20025;-54
2021/04/14 13:29:24;;;;;;;3.38;1.30;;;;;;;;;;5062084;28;20119;-52
2021/04/14 13:31:55;;;;;;;4.95;0.93;;;;;;;;;;5055397;28;20043;-53
2021/04/14 13:34:27;;;;;;;7.68;1.10;;;;;;;;;;5053438;28;20025;-54
2021/04/14 13:37:02;;;;;;;4.88;1.08;;;;;;;;;;5057971;28;20342;-55
2021/04/14 13:39:42;;;;;;;2.70;0.82;;;;;;;;;;5061536;28;20020;-49
2021/04/14 13:42:10;;;;;;;3.72;1.35;;;;;;;;;;5054291;28;20024;-50
2021/04/14 13:44:39;;;;;;;6.05;1.45;;;;;;;;;;5051504;28;20524;-52
2021/04/14 13:47:11;;;;;;;4.40;1.40;;;;;;;;;;5059641;28;20025;-52
2021/04/14 13:49:42;;;;;;;8.85;1.10;;;;;;;;;;5055547;28;20104;-52
2021/04/14 13:52:29;;;;;;;8.18;1.75;;;;;;;;;;5055000;28;20056;-53
2021/04/14 13:54:59;;;;;;;3.80;1.08;;;;;;;;;;5056847;28;20508;-49
2021/04/14 13:57:28;;;;;;;4.32;1.17;;;;;;;;;;5053583;28;20124;-52
2021/04/14 13:59:56;;;;;;;4.53;1.00;;;;;;;;;;5052919;28;20040;-51
2021/04/14 14:02:39;;;;;;;3.08;1.00;;;;;;;;;;5061685;28;20024;-53
2021/04/14 14:05:24;;;;;;;3.47;0.98;;;;;;;;;;5051856;28;20103;-52
2021/04/14 14:07:53;;;;;;;3.40;0.85;;;;;;;;;;5048089;28;20025;-53
2021/04/14 14:10:24;;;;;;;4.40;1.10;;;;;;;;;;5051879;28;20546;-55
2021/04/14 14:12:59;;;;;;;4.55;0.90;;;;;;;;;;5053565;28;20071;-54
2021/04/14 14:15:26;;;;;;;5.25;1.40;;;;;;;;;;5051759;28;20032;-54
2021/04/14 14:17:52;;;;;;;3.28;0.93;;;;;;;;;;5050594;28;20123;-53
2021/04/14 14:20:25;;;;;;;5.75;1.50;;;;;;;;;;5061960;28;20051;-55
2021/04/14 14:22:51;;;;;;;;;;;;;;;;;;5052996;28;20036;-54
2021/04/14 14:25:17;;;;;;;7.93;1.33;;;;;;;;;;5055314;28;19953;-54
2021/04/14 14:27:43;;;;;;;3.45;1.27;;;;;;;;;;5046264;28;20021;-52
2021/04/14 14:30:10;;;;;;;6.70;1.10;;;;;;;;;;5052308;28;20039;-50
2021/04/14 14:32:36;;;;;;;8.82;1.20;;;;;;;;;;5052653;28;20115;-54
2021/04/14 14:35:08;;;;;;;6.15;1.20;;;;;;;;;;5052496;28;20021;-54
2021/04/14 14:37:40;;;;;;;7.57;1.40;;;;;;;;;;5048163;28;20037;-54
2021/04/14 14:40:13;;;;;;;7.22;1.42;;;;;;;;;;5053194;28;20100;-53
2021/04/14 14:42:48;;;;;;;5.53;1.67;;;;;;;;;;5055170;28;20108;-50
2021/04/14 14:45:14;;;;;;;5.75;1.25;;;;;;;;;;5050108;28;20033;-50
2021/04/14 14:47:45;;;;;;;7.97;1.05;;;;;;;;;;5051346;28;20113;-54
2021/04/14 14:50:14;;;;;;;5.07;1.15;;;;;;;;;;5052168;28;20512;-50
2021/04/14 14:52:41;;;;;;;3.90;1.23;;;;;;;;;;5050497;28;20084;-49
2021/04/14 14:55:08;;;;;;;4.65;1.25;;;;;;;;;;5062489;28;20024;-50